createdAt,value
2018-09-18T00:00:07.316Z,99855.80
2018-09-18T00:02:39.797Z,99856.98
2018-09-18T00:05:12.983Z,99854.16
2018-09-18T00:07:45.513Z,99852.00
2018-09-18T00:10:18.185Z,99847.49
2018-09-18T00:12:53.161Z,99843.88
2018-09-18T00:15:26.635Z,99836.33
2018-09-18T00:17:59.165Z,99832.05
2018-09-18T00:20:33.314Z,99838.42
2018-09-18T00:23:06.003Z,99830.58
2018-09-18T00:25:38.726Z,99830.66
2018-09-18T00:28:12.592Z,99830.55
2018-09-18T00:30:46.328Z,99834.41
2018-09-18T00:33:19.145Z,99829.16
2018-09-18T00:35:53.180Z,99822.78
2018-09-18T00:38:25.745Z,99823.64
2018-09-18T00:40:58.792Z,99821.98
2018-09-18T00:43:31.711Z,99820.38
2018-09-18T00:46:04.742Z,99815.63
2018-09-18T00:48:37.276Z,99819.06
2018-09-18T00:51:10.240Z,99818.02
2018-09-18T00:53:43.664Z,99812.66
2018-09-18T00:56:16.289Z,99807.20
2018-09-18T00:58:49.276Z,99814.60
2018-09-18T01:01:21.768Z,99807.17
2018-09-18T01:03:54.426Z,99813.00
2018-09-18T01:06:28.161Z,99805.92
2018-09-18T01:09:01.709Z,99807.48
2018-09-18T01:11:34.335Z,99806.54
2018-09-18T01:14:12.236Z,99808.26
2018-09-18T01:16:44.983Z,99801.45
2018-09-18T01:19:17.832Z,99793.94
2018-09-18T01:21:50.806Z,99801.67
2018-09-18T01:24:23.396Z,99798.30
2018-09-18T01:26:55.914Z,99796.27
2018-09-18T01:29:29.000Z,99793.52
2018-09-18T01:32:02.689Z,99788.14
2018-09-18T01:34:35.586Z,99790.53
2018-09-18T01:37:09.616Z,99788.47
2018-09-18T01:39:45.153Z,99787.05
2018-09-18T01:42:17.984Z,99787.19
2018-09-18T01:44:51.809Z,99789.63
2018-09-18T01:47:24.398Z,99787.05
2018-09-18T01:49:57.527Z,99787.83
2018-09-18T01:52:30.779Z,99787.81
2018-09-18T01:55:03.581Z,99784.62
2018-09-18T01:57:36.317Z,99784.59
2018-09-18T02:00:08.552Z,99778.20
2018-09-18T02:02:41.487Z,99776.48
2018-09-18T02:05:16.754Z,99776.36
2018-09-18T02:07:49.921Z,99771.52
2018-09-18T02:10:22.512Z,99774.09
2018-09-18T02:12:55.041Z,99771.74
2018-09-18T02:15:27.839Z,99771.32
2018-09-18T02:18:00.396Z,99774.22
2018-09-18T02:20:32.965Z,99774.47
2018-09-18T02:23:07.188Z,99774.66
2018-09-18T02:25:39.926Z,99777.42
2018-09-18T02:28:12.512Z,99774.19
2018-09-18T02:30:46.555Z,99767.59
2018-09-18T02:33:24.485Z,99769.64
2018-09-18T02:35:57.879Z,99768.31
2018-09-18T02:38:32.724Z,99767.05
2018-09-18T02:41:05.380Z,99765.75
2018-09-18T02:43:37.875Z,99763.19
2018-09-18T02:46:11.238Z,99762.03
2018-09-18T02:48:44.689Z,99758.98
2018-09-18T02:51:17.558Z,99760.83
2018-09-18T02:53:50.588Z,99761.14
2018-09-18T02:56:23.135Z,99760.02
2018-09-18T02:58:55.777Z,99758.72
2018-09-18T03:01:29.653Z,99754.58
2018-09-18T03:04:02.229Z,99757.87
2018-09-18T03:06:34.785Z,99755.66
2018-09-18T03:09:09.976Z,99746.20
2018-09-18T03:11:42.574Z,99749.48
2018-09-18T03:14:15.178Z,99751.96
2018-09-18T03:16:49.278Z,99749.44
2018-09-18T03:19:21.956Z,99748.34
2018-09-18T03:21:54.573Z,99748.33
2018-09-18T03:24:27.352Z,99741.91
2018-09-18T03:27:00.801Z,99743.91
2018-09-18T03:29:33.509Z,99748.78
2018-09-18T03:32:07.620Z,99746.73
2018-09-18T03:34:40.255Z,99735.81
2018-09-18T03:37:13.052Z,99747.02
2018-09-18T03:39:46.060Z,99741.73
2018-09-18T03:42:18.617Z,99738.48
2018-09-18T03:44:51.205Z,99733.98
2018-09-18T03:47:26.451Z,99732.11
2018-09-18T03:49:59.032Z,99727.23
2018-09-18T03:52:31.643Z,99721.59
2018-09-18T03:55:04.997Z,99719.58
2018-09-18T03:57:37.824Z,99724.56
2018-09-18T04:00:10.373Z,99723.47
2018-09-18T04:02:44.571Z,99722.30
2018-09-18T04:05:17.100Z,99720.95
2018-09-18T04:07:49.581Z,99715.98
2018-09-18T04:10:23.554Z,99717.23
2018-09-18T04:12:56.053Z,99716.80
2018-09-18T04:15:30.012Z,99713.72
2018-09-18T04:18:03.373Z,99712.13
2018-09-18T04:20:36.804Z,99711.58
2018-09-18T04:23:09.376Z,99708.23
2018-09-18T04:25:44.265Z,99707.75
2018-09-18T04:28:17.275Z,99702.88
2018-09-18T04:30:49.857Z,99700.66
2018-09-18T04:33:23.823Z,99697.16
2018-09-18T04:35:58.104Z,99696.21
2018-09-18T04:38:30.834Z,99695.18
2018-09-18T04:41:04.066Z,99693.89
2018-09-18T04:43:36.599Z,99696.17
2018-09-18T04:46:09.236Z,99695.49
2018-09-18T04:48:42.221Z,99688.35
2018-09-18T04:51:14.725Z,99688.93
2018-09-18T04:53:48.774Z,99684.93
2018-09-18T04:56:22.890Z,99686.14
2018-09-18T04:58:55.539Z,99684.77
2018-09-18T05:01:28.129Z,99687.87
2018-09-18T05:04:01.181Z,99686.17
2018-09-18T05:06:33.813Z,99685.84
2018-09-18T05:09:11.399Z,99682.96
2018-09-18T05:11:43.949Z,99688.20
2018-09-18T05:14:16.512Z,99692.94
2018-09-18T05:16:49.121Z,99688.04
2018-09-18T05:19:22.726Z,99694.93
2018-09-18T05:21:55.315Z,99695.00
2018-09-18T05:24:27.940Z,99687.28
2018-09-18T05:27:04.444Z,99689.59
2018-09-18T05:29:36.912Z,99692.70
2018-09-18T05:32:09.809Z,99686.24
2018-09-18T05:34:42.713Z,99693.66
2018-09-18T05:37:17.840Z,99686.33
2018-09-18T05:39:51.121Z,99679.73
2018-09-18T05:42:24.160Z,99681.87
2018-09-18T05:44:57.081Z,99681.66
2018-09-18T05:47:30.680Z,99674.04
2018-09-18T05:50:03.464Z,99674.19
2018-09-18T05:52:36.092Z,99682.02
2018-09-18T05:55:11.880Z,99683.75
2018-09-18T05:57:44.516Z,99685.95
2018-09-18T06:00:23.398Z,99679.11
2018-09-18T06:02:58.512Z,99685.45
2018-09-18T06:05:33.725Z,99687.67
2018-09-18T06:08:09.324Z,99688.52
2018-09-18T06:10:41.985Z,99696.46
2018-09-18T06:13:15.155Z,99687.45
2018-09-18T06:15:48.302Z,99690.48
2018-09-18T06:18:20.899Z,99695.13
2018-09-18T06:20:56.585Z,99685.27
2018-09-18T06:23:29.676Z,99696.72
2018-09-18T06:26:02.287Z,99693.22
2018-09-18T06:28:35.144Z,99693.39
2018-09-18T06:31:08.372Z,99686.20
2018-09-18T06:33:41.923Z,99696.81
2018-09-18T06:36:16.294Z,99697.42
2018-09-18T06:38:49.341Z,99698.31
2018-09-18T06:41:22.538Z,99693.02
2018-09-18T06:43:58.176Z,99706.20
2018-09-18T06:46:32.232Z,99707.26
2018-09-18T06:49:04.999Z,99694.08
2018-09-18T06:51:38.929Z,99701.22
2018-09-18T06:54:14.191Z,99700.48
2018-09-18T06:56:48.162Z,99702.52
2018-09-18T06:59:21.743Z,99691.02
2018-09-18T07:01:55.164Z,99690.41
2018-09-18T07:04:29.642Z,99686.95
2018-09-18T07:07:06.157Z,99689.65
2018-09-18T07:09:38.823Z,99692.56
2018-09-18T07:12:11.324Z,99691.83
2018-09-18T07:14:45.743Z,99695.70
2018-09-18T07:17:22.040Z,99688.93
2018-09-18T07:19:56.380Z,99690.90
2018-09-18T07:22:30.389Z,99688.16
2018-09-18T07:25:03.945Z,99682.94
2018-09-18T07:27:37.473Z,99691.56
2018-09-18T07:30:16.888Z,99689.02
2018-09-18T07:32:51.530Z,99694.41
2018-09-18T07:35:26.826Z,99700.98
2018-09-18T07:38:01.810Z,99694.20
2018-09-18T07:40:35.860Z,99690.09
2018-09-18T07:43:11.799Z,99696.08
2018-09-18T07:45:46.001Z,99692.48
2018-09-18T07:48:18.611Z,99691.63
2018-09-18T07:50:52.575Z,99692.11
2018-09-18T07:53:29.285Z,99688.84
2018-09-18T07:56:03.107Z,99681.20
2018-09-18T07:58:35.713Z,99686.70
2018-09-18T08:01:12.230Z,99687.94
2018-09-18T08:03:45.400Z,99692.19
2018-09-18T08:06:18.034Z,99686.84
2018-09-18T08:08:50.766Z,99680.14
2018-09-18T08:11:28.573Z,99686.95
2018-09-18T08:14:03.913Z,99676.49
2018-09-18T08:16:37.512Z,99676.24
2018-09-18T08:19:11.320Z,99675.88
2018-09-18T08:21:43.746Z,99670.34
2018-09-18T08:24:17.914Z,99683.48
2018-09-18T08:26:52.287Z,99683.36
2018-09-18T08:29:26.616Z,99679.81
2018-09-18T08:31:59.077Z,99681.17
2018-09-18T08:34:32.463Z,99679.69
2018-09-18T08:37:05.720Z,99678.84
2018-09-18T08:39:41.475Z,99678.23
2018-09-18T08:42:13.981Z,99687.27
2018-09-18T08:44:50.516Z,99685.19
2018-09-18T08:47:24.405Z,99692.84
2018-09-18T08:49:58.836Z,99694.32
2018-09-18T08:52:33.607Z,99693.97
2018-09-18T08:55:09.228Z,99692.59
2018-09-18T08:57:42.337Z,99687.86
2018-09-18T09:00:16.849Z,99691.53
2018-09-18T09:02:51.714Z,99692.34
2018-09-18T09:05:24.164Z,99687.67
2018-09-18T09:07:57.965Z,99691.80
2018-09-18T09:10:30.663Z,99691.31
2018-09-18T09:13:03.999Z,99687.87
2018-09-18T09:15:41.176Z,99691.78
2018-09-18T09:18:15.725Z,99690.78
2018-09-18T09:20:49.972Z,99692.48
2018-09-18T09:23:22.439Z,99684.29
2018-09-18T09:25:58.116Z,99687.89
2018-09-18T09:28:31.454Z,99687.02
2018-09-18T09:31:05.121Z,99682.36
2018-09-18T09:33:39.149Z,99690.59
2018-09-18T09:36:12.356Z,99680.75
2018-09-18T09:38:47.268Z,99681.03
2018-09-18T09:41:19.883Z,99677.75
2018-09-18T09:43:53.451Z,99689.68
2018-09-18T09:46:26.528Z,99680.39
2018-09-18T09:49:00.863Z,99681.14
2018-09-18T09:51:34.375Z,99686.64
2018-09-18T09:54:08.246Z,99678.88
2018-09-18T09:56:43.237Z,99682.91
2018-09-18T09:59:16.647Z,99680.77
2018-09-18T10:01:57.918Z,99678.19
2018-09-18T10:04:30.485Z,99677.31
2018-09-18T10:07:04.484Z,99677.09
2018-09-18T10:09:40.017Z,99674.11
2018-09-18T10:12:13.056Z,99671.52
2018-09-18T10:14:46.688Z,99677.81
2018-09-18T10:17:21.375Z,99677.47
2018-09-18T10:19:56.769Z,99674.65
2018-09-18T10:22:30.299Z,99678.73
2018-09-18T10:25:03.410Z,99676.25
2018-09-18T10:27:36.201Z,99673.48
2018-09-18T10:30:09.421Z,99677.22
2018-09-18T10:32:44.767Z,99671.38
2018-09-18T10:35:17.472Z,99675.01
2018-09-18T10:37:50.074Z,99675.89
2018-09-18T10:40:24.996Z,99675.55
2018-09-18T10:42:58.774Z,99672.27
2018-09-18T10:45:32.397Z,99665.86
2018-09-18T10:48:06.253Z,99670.50
2018-09-18T10:50:39.672Z,99661.23
2018-09-18T10:53:12.393Z,99660.49
2018-09-18T10:55:46.704Z,99666.39
2018-09-18T10:58:21.671Z,99664.53
2018-09-18T11:00:57.302Z,99664.19
2018-09-18T11:03:29.939Z,99661.19
2018-09-18T11:06:03.872Z,99658.36
2018-09-18T11:08:39.025Z,99654.86
2018-09-18T11:11:11.785Z,99641.71
2018-09-18T11:13:49.733Z,99641.28
2018-09-18T11:16:23.266Z,99637.39
2018-09-18T11:18:55.970Z,99634.45
2018-09-18T11:21:29.422Z,99624.47
2018-09-18T11:24:05.998Z,99624.61
2018-09-18T11:26:38.531Z,99628.67
2018-09-18T11:29:11.236Z,99633.31
2018-09-18T11:31:44.429Z,99634.98
2018-09-18T11:34:19.304Z,99631.89
2018-09-18T11:36:53.294Z,99631.81
2018-09-18T11:39:26.272Z,99629.64
2018-09-18T11:41:59.882Z,99631.98
2018-09-18T11:44:34.072Z,99633.14
2018-09-18T11:47:10.149Z,99629.11
2018-09-18T11:49:42.649Z,99630.54
2018-09-18T11:52:20.128Z,99626.34
2018-09-18T11:54:52.816Z,99613.57
2018-09-18T11:57:26.808Z,99617.12
2018-09-18T12:00:04.549Z,99614.74
2018-09-18T12:02:38.577Z,99611.64
2018-09-18T12:05:11.922Z,99608.33
2018-09-18T12:07:45.856Z,99615.98
2018-09-18T12:10:18.506Z,99612.80
2018-09-18T12:12:55.180Z,99609.61
2018-09-18T12:15:27.764Z,99610.31
2018-09-18T12:18:02.167Z,99606.14
2018-09-18T12:20:38.049Z,99599.41
2018-09-18T12:23:11.800Z,99603.40
2018-09-18T12:25:45.846Z,99594.77
2018-09-18T12:28:18.609Z,99606.38
2018-09-18T12:30:52.070Z,99605.31
2018-09-18T12:33:26.948Z,99607.28
2018-09-18T12:36:00.648Z,99597.91
2018-09-18T12:38:33.579Z,99601.28
2018-09-18T12:41:09.250Z,99596.64
2018-09-18T12:43:46.491Z,99595.57
2018-09-18T12:46:19.660Z,99597.22
2018-09-18T12:48:55.278Z,99593.85
2018-09-18T12:51:28.555Z,99591.80
2018-09-18T12:54:01.927Z,99591.09
2018-09-18T12:56:45.993Z,99591.08
2018-09-18T12:59:26.858Z,99589.36
2018-09-18T13:01:59.184Z,99591.53
2018-09-18T13:04:33.876Z,99590.36
2018-09-18T13:07:06.581Z,99583.38
2018-09-18T13:09:40.861Z,99587.72
2018-09-18T13:12:14.400Z,99581.59
2018-09-18T13:14:48.498Z,99581.03
2018-09-18T13:17:22.733Z,99583.86
2018-09-18T13:19:58.385Z,99575.98
2018-09-18T13:22:31.672Z,99572.35
2018-09-18T13:25:07.554Z,99577.98
2018-09-18T13:27:40.306Z,99575.78
2018-09-18T13:30:16.996Z,99575.93
2018-09-18T13:32:50.104Z,99578.18
2018-09-18T13:35:25.119Z,99577.14
2018-09-18T13:38:05.469Z,99575.59
2018-09-18T13:40:38.178Z,99575.00
2018-09-18T13:43:11.064Z,99584.50
2018-09-18T13:45:46.305Z,99575.70
2018-09-18T13:48:20.640Z,99580.45
2018-09-18T13:50:56.966Z,99585.80
2018-09-18T13:53:37.586Z,99585.36
2018-09-18T13:56:13.861Z,99579.57
2018-09-18T13:58:48.707Z,99586.41
2018-09-18T14:01:27.717Z,99589.80
2018-09-18T14:04:01.122Z,99587.50
2018-09-18T14:06:34.662Z,99598.81
2018-09-18T14:09:10.498Z,99588.11
2018-09-18T14:11:43.556Z,99595.77
2018-09-18T14:14:16.697Z,99591.83
2018-09-18T14:16:51.186Z,99585.32
2018-09-18T14:19:24.787Z,99595.83
2018-09-18T14:21:59.214Z,99594.47
2018-09-18T14:24:34.632Z,99595.57
2018-09-18T14:27:07.592Z,99598.57
2018-09-18T14:29:40.917Z,99599.73
2018-09-18T14:32:15.524Z,99596.33
2018-09-18T14:34:50.000Z,99595.66
2018-09-18T14:37:23.210Z,99596.02
2018-09-18T14:39:57.253Z,99595.44
2018-09-18T14:42:30.026Z,99600.78
2018-09-18T14:45:06.261Z,99609.59
2018-09-18T14:47:39.135Z,99605.70
2018-09-18T14:50:13.410Z,99604.49
2018-09-18T14:52:48.228Z,99600.80
2018-09-18T14:55:23.857Z,99616.91
2018-09-18T14:57:57.300Z,99623.55
2018-09-18T15:00:30.069Z,99632.57
2018-09-18T15:03:05.907Z,99625.48
2018-09-18T15:05:42.520Z,99623.58
2018-09-18T15:08:18.148Z,99633.46
2018-09-18T15:10:52.951Z,99631.91
2018-09-18T15:13:27.444Z,99639.45
2018-09-18T15:16:01.985Z,99629.23
2018-09-18T15:18:36.243Z,99630.08
2018-09-18T15:21:10.651Z,99638.12
2018-09-18T15:23:46.073Z,99635.55
2018-09-18T15:26:21.472Z,99638.57
2018-09-18T15:28:55.086Z,99633.55
2018-09-18T15:31:35.286Z,99642.80
2018-09-18T15:34:09.057Z,99636.05
2018-09-18T15:36:41.847Z,99640.70
2018-09-18T15:39:16.399Z,99642.11
2018-09-18T15:41:49.496Z,99641.59
2018-09-18T15:44:27.143Z,99648.13
2018-09-18T15:47:03.888Z,99659.17
2018-09-18T15:49:43.038Z,99661.69
2018-09-18T15:52:17.569Z,99652.69
2018-09-18T15:54:51.583Z,99649.20
2018-09-18T15:57:24.835Z,99652.93
2018-09-18T15:59:59.348Z,99660.23
2018-09-18T16:02:32.916Z,99650.58
2018-09-18T16:05:07.355Z,99653.61
2018-09-18T16:07:41.252Z,99647.56
2018-09-18T16:10:14.205Z,99652.90
2018-09-18T16:12:50.812Z,99651.35
2018-09-18T16:15:28.036Z,99651.89
2018-09-18T16:18:03.011Z,99651.44
2018-09-18T16:20:36.100Z,99649.66
2018-09-18T16:23:09.586Z,99652.20
2018-09-18T16:25:42.552Z,99649.75
2018-09-18T16:28:15.443Z,99651.37
2018-09-18T16:30:48.063Z,99649.87
2018-09-18T16:33:20.895Z,99654.88
2018-09-18T16:35:54.430Z,99658.16
2018-09-18T16:38:29.044Z,99663.34
2018-09-18T16:41:04.030Z,99669.29
2018-09-18T16:43:38.264Z,99659.45
2018-09-18T16:46:12.394Z,99668.37
2018-09-18T16:48:46.247Z,99671.17
2018-09-18T16:51:20.248Z,99676.78
2018-09-18T16:53:54.292Z,99672.41
2018-09-18T16:56:27.952Z,99672.41
2018-09-18T16:59:01.226Z,99672.06
2018-09-18T17:01:36.739Z,99680.23
2018-09-18T17:04:23.095Z,99676.88
2018-09-18T17:06:58.194Z,99679.31
2018-09-18T17:09:34.641Z,99678.68
2018-09-18T17:12:11.973Z,99681.30
2018-09-18T17:14:46.745Z,99684.11
2018-09-18T17:17:22.510Z,99692.64
2018-09-18T17:19:57.822Z,99694.28
2018-09-18T17:22:36.332Z,99705.48
2018-09-18T17:25:10.369Z,99709.95
2018-09-18T17:27:43.563Z,99716.59
2018-09-18T17:30:18.957Z,99729.62
2018-09-18T17:32:52.776Z,99731.28
2018-09-18T17:35:27.302Z,99734.23
2018-09-18T17:38:02.618Z,99735.02
2018-09-18T17:40:37.729Z,99741.62
2018-09-18T17:43:11.830Z,99747.80
2018-09-18T17:45:53.552Z,99753.67
2018-09-18T17:48:31.198Z,99763.66
2018-09-18T17:51:06.624Z,99778.60
2018-09-18T17:53:43.061Z,99778.52
2018-09-18T17:56:17.228Z,99781.41
2018-09-18T17:59:01.972Z,99779.32
2018-09-18T18:01:35.938Z,99791.83
2018-09-18T18:04:11.182Z,99797.55
2018-09-18T18:06:44.035Z,99800.05
2018-09-18T18:09:24.714Z,99810.59
2018-09-18T18:12:00.378Z,99813.52
2018-09-18T18:14:33.057Z,99827.05
2018-09-18T18:17:06.785Z,99832.08
2018-09-18T18:19:43.526Z,99840.37
2018-09-18T18:22:17.070Z,99846.27
2018-09-18T18:24:51.979Z,99854.70
2018-09-18T18:27:24.629Z,99861.88
2018-09-18T18:30:00.299Z,99859.22
2018-09-18T18:32:36.151Z,99864.45
2018-09-18T18:35:09.545Z,99867.28
2018-09-18T18:37:44.261Z,99874.22
2018-09-18T18:40:18.074Z,99877.91
2018-09-18T18:42:54.193Z,99887.23
2018-09-18T18:45:29.980Z,99889.36
2018-09-18T18:48:05.308Z,99897.83
2018-09-18T18:50:38.104Z,99899.59
2018-09-18T18:53:14.710Z,99900.44
2018-09-18T18:55:47.333Z,99906.14
2018-09-18T18:58:47.399Z,99910.91
2018-09-18T19:01:22.485Z,99910.03
2018-09-18T19:03:56.565Z,99913.52
2018-09-18T19:06:29.963Z,99919.08
2018-09-18T19:09:03.741Z,99924.97
2018-09-18T19:11:40.299Z,99923.19
2018-09-18T19:14:18.409Z,99924.13
2018-09-18T19:16:55.878Z,99924.69
2018-09-18T19:19:32.105Z,99930.77
2018-09-18T19:22:09.918Z,99933.94
2018-09-18T19:24:44.154Z,99938.09
2018-09-18T19:27:18.238Z,99943.03
2018-09-18T19:29:55.345Z,99940.72
2018-09-18T19:32:30.739Z,99945.92
2018-09-18T19:35:12.264Z,99944.86
2018-09-18T19:37:49.508Z,99949.28
2018-09-18T19:40:22.117Z,99946.48
2018-09-18T19:42:55.744Z,99949.39
2018-09-18T19:45:30.539Z,99951.64
2018-09-18T19:48:03.119Z,99948.16
2018-09-18T19:50:37.531Z,99951.67
2018-09-18T19:53:10.198Z,99945.32
2018-09-18T19:55:47.119Z,99953.59
2018-09-18T19:58:20.628Z,99953.94
2018-09-18T20:00:54.894Z,99958.96
2018-09-18T20:03:28.108Z,99967.94
2018-09-18T20:06:02.319Z,99970.22
2018-09-18T20:08:39.492Z,99969.24
2018-09-18T20:11:15.616Z,99972.86
2018-09-18T20:13:50.061Z,99978.29
2018-09-18T20:16:25.821Z,99977.63
2018-09-18T20:19:04.082Z,99981.25
2018-09-18T20:21:41.846Z,99990.62
2018-09-18T20:24:19.417Z,99992.70
2018-09-18T20:26:56.077Z,99997.78
2018-09-18T20:29:33.589Z,99996.31
2018-09-18T20:32:08.792Z,100005.08
2018-09-18T20:34:44.516Z,100007.64
2018-09-18T20:37:18.673Z,100002.92
2018-09-18T20:39:51.686Z,99999.11
2018-09-18T20:42:30.333Z,99999.14
2018-09-18T20:45:09.972Z,100000.28
2018-09-18T20:47:46.146Z,99993.81
2018-09-18T20:50:21.756Z,99993.80
2018-09-18T20:53:02.883Z,99996.73
2018-09-18T20:55:37.534Z,100002.92
2018-09-18T20:58:14.190Z,100005.73
2018-09-18T21:00:47.237Z,100005.97
2018-09-18T21:03:21.181Z,100005.01
2018-09-18T21:05:54.849Z,100001.91
2018-09-18T21:08:33.755Z,100003.73
2018-09-18T21:11:08.250Z,100004.56
2018-09-18T21:13:49.250Z,100009.69
2018-09-18T21:16:22.956Z,100014.21
2018-09-18T21:18:55.510Z,100011.69
2018-09-18T21:21:29.548Z,100013.38
2018-09-18T21:24:04.733Z,100017.27
2018-09-18T21:26:41.093Z,100019.52
2018-09-18T21:29:15.967Z,100018.30
2018-09-18T21:31:50.123Z,100020.19
2018-09-18T21:34:22.685Z,100020.94
2018-09-18T21:36:55.929Z,100022.25
2018-09-18T21:39:30.569Z,100031.06
2018-09-18T21:42:04.669Z,100030.31
2018-09-18T21:44:41.440Z,100025.88
2018-09-18T21:47:15.475Z,100034.34
2018-09-18T21:49:48.920Z,100034.45
2018-09-18T21:52:24.078Z,100032.27
2018-09-18T21:54:56.636Z,100042.67
2018-09-18T21:57:29.852Z,100035.05
2018-09-18T22:00:06.948Z,100037.84
2018-09-18T22:02:39.575Z,100043.38
2018-09-18T22:05:12.106Z,100044.55
2018-09-18T22:07:47.918Z,100044.12
2018-09-18T22:10:20.745Z,100050.60
2018-09-18T22:12:54.167Z,100054.03
2018-09-18T22:15:31.169Z,100053.58
2018-09-18T22:18:10.906Z,100054.50
2018-09-18T22:20:48.603Z,100059.86
2018-09-18T22:23:23.975Z,100062.62
2018-09-18T22:25:58.735Z,100068.27
2018-09-18T22:28:33.188Z,100069.44
2018-09-18T22:31:05.914Z,100076.41
2018-09-18T22:33:39.833Z,100077.31
2018-09-18T22:36:13.625Z,100076.28
2018-09-18T22:38:47.319Z,100078.27
2018-09-18T22:41:22.362Z,100079.38
2018-09-18T22:43:54.918Z,100084.30
2018-09-18T22:46:27.749Z,100087.72
2018-09-18T22:49:01.788Z,100092.31
2018-09-18T22:51:34.824Z,100088.58
2018-09-18T22:54:07.413Z,100085.86
2018-09-18T22:56:40.507Z,100087.81
2018-09-18T22:59:13.080Z,100085.12
2018-09-18T23:01:46.865Z,100088.72
2018-09-18T23:04:20.790Z,100093.62
2018-09-18T23:06:53.673Z,100097.33
2018-09-18T23:09:27.018Z,100099.02
2018-09-18T23:12:00.039Z,100098.17
2018-09-18T23:14:33.709Z,100103.42
2018-09-18T23:17:08.250Z,100102.05
2018-09-18T23:19:41.860Z,100104.41
2018-09-18T23:22:15.401Z,100104.34
2018-09-18T23:24:48.832Z,100111.37
2018-09-18T23:27:22.436Z,100105.35
2018-09-18T23:29:56.576Z,100105.75
2018-09-18T23:32:30.317Z,100109.72
2018-09-18T23:35:03.229Z,100112.47
2018-09-18T23:37:36.273Z,100107.04
2018-09-18T23:40:10.298Z,100105.34
2018-09-18T23:42:44.157Z,100102.09
2018-09-18T23:45:16.543Z,100107.94
2018-09-18T23:47:58.293Z,100106.77
2018-09-18T23:50:30.907Z,100110.08
2018-09-18T23:53:03.585Z,100111.94
2018-09-18T23:55:36.378Z,100112.74
2018-09-18T23:58:09.004Z,100119.09
